createdAt,value
2023-02-28T00:01:31.514Z,16.00
2023-02-28T00:04:00.056Z,16.50
2023-02-28T00:06:28.412Z,15.60
2023-02-28T00:08:56.734Z,14.90
2023-02-28T00:11:24.679Z,14.70
2023-02-28T00:13:52.728Z,14.40
2023-02-28T00:16:23.217Z,14.60
2023-02-28T00:18:51.966Z,14.70
2023-02-28T00:21:20.971Z,14.10
2023-02-28T00:23:49.288Z,13.60
2023-02-28T00:26:17.361Z,15.60
2023-02-28T00:28:46.548Z,15.80
2023-02-28T00:31:14.614Z,15.00
2023-02-28T00:33:42.726Z,14.40
2023-02-28T00:36:12.332Z,14.70
2023-02-28T00:38:41.719Z,15.30
2023-02-28T00:41:10.299Z,15.20
2023-02-28T00:43:40.232Z,14.70
2023-02-28T00:46:09.054Z,14.20
2023-02-28T00:48:37.837Z,15.10
2023-02-28T00:51:06.180Z,15.10
2023-02-28T00:53:34.473Z,14.10
2023-02-28T00:56:02.769Z,15.60
2023-02-28T00:58:31.488Z,15.70
2023-02-28T01:00:59.444Z,15.70
2023-02-28T01:03:27.337Z,15.20
2023-02-28T01:05:55.497Z,15.00
2023-02-28T01:08:23.547Z,16.00
2023-02-28T01:10:52.537Z,15.50
2023-02-28T01:13:21.102Z,15.70
2023-02-28T01:15:55.422Z,15.80
2023-02-28T01:18:23.952Z,15.60
2023-02-28T01:20:53.488Z,14.50
2023-02-28T01:23:24.257Z,14.80
2023-02-28T01:25:52.600Z,15.10
2023-02-28T01:28:21.256Z,15.00
2023-02-28T01:30:50.969Z,15.60
2023-02-28T01:33:18.982Z,15.40
2023-02-28T01:35:47.161Z,15.30
2023-02-28T01:38:22.064Z,15.80
2023-02-28T01:40:52.028Z,15.80
2023-02-28T01:43:46.047Z,15.30
2023-02-28T01:46:14.803Z,15.00
2023-02-28T01:48:51.171Z,16.50
2023-02-28T01:51:25.914Z,15.40
2023-02-28T01:53:59.121Z,15.30
2023-02-28T01:56:31.630Z,16.60
2023-02-28T01:58:59.762Z,16.30
2023-02-28T02:01:29.168Z,16.60
2023-02-28T02:04:02.291Z,16.10
2023-02-28T02:06:43.780Z,15.70
2023-02-28T02:09:13.222Z,15.40
2023-02-28T02:11:44.710Z,15.70
2023-02-28T02:14:37.733Z,15.60
2023-02-28T02:17:42.981Z,15.70
2023-02-28T02:20:29.889Z,16.70
2023-02-28T02:23:32.979Z,16.00
2023-02-28T02:26:34.823Z,17.20
2023-02-28T02:29:32.100Z,16.50
2023-02-28T02:32:12.253Z,17.50
2023-02-28T02:35:15.028Z,16.70
2023-02-28T02:37:45.708Z,16.60
2023-02-28T02:40:15.742Z,14.50
2023-02-28T02:42:52.806Z,16.00
2023-02-28T02:45:28.925Z,15.80
2023-02-28T02:48:01.057Z,15.60
2023-02-28T02:50:38.317Z,16.10
2023-02-28T02:53:09.576Z,17.70
2023-02-28T02:55:42.374Z,19.50
2023-02-28T02:58:19.792Z,16.00
2023-02-28T03:00:54.143Z,16.20
2023-02-28T03:06:00.374Z,17.70
2023-02-28T03:08:34.298Z,25.90
2023-02-28T03:11:05.617Z,16.60
2023-02-28T03:16:50.973Z,14.30
2023-02-28T03:19:37.746Z,14.90
2023-02-28T03:22:20.958Z,20.50
2023-02-28T03:25:06.239Z,14.50
2023-02-28T03:28:02.900Z,16.10
2023-02-28T03:30:55.006Z,20.40
2023-02-28T03:33:36.828Z,28.30
2023-02-28T03:36:14.657Z,21.60
2023-02-28T03:38:51.070Z,13.80
2023-02-28T03:41:33.997Z,5.50
2023-02-28T03:44:16.430Z,13.10
2023-02-28T03:46:52.567Z,14.20
2023-02-28T03:49:25.901Z,22.30
2023-02-28T03:51:57.030Z,14.50
2023-02-28T03:54:33.513Z,18.60
2023-02-28T03:57:14.021Z,16.80
2023-02-28T03:59:47.334Z,22.00
2023-02-28T04:02:15.536Z,12.30
2023-02-28T04:04:49.643Z,11.00
2023-02-28T04:07:18.417Z,13.40
2023-02-28T04:09:46.327Z,14.40
2023-02-28T04:12:14.280Z,15.20
2023-02-28T04:14:42.132Z,15.60
2023-02-28T04:17:09.950Z,13.50
2023-02-28T04:19:37.864Z,16.70
2023-02-28T04:22:05.731Z,13.80
2023-02-28T04:24:33.603Z,14.90
2023-02-28T04:27:01.655Z,15.10
2023-02-28T04:29:33.295Z,14.30
2023-02-28T04:32:02.378Z,13.00
2023-02-28T04:34:32.426Z,11.70
2023-02-28T04:37:17.056Z,11.70
2023-02-28T04:39:45.237Z,10.50
2023-02-28T04:42:13.596Z,11.20
2023-02-28T04:44:41.815Z,10.60
2023-02-28T04:47:10.029Z,10.80
2023-02-28T04:49:38.051Z,10.40
2023-02-28T04:52:06.149Z,10.60
2023-02-28T04:54:34.080Z,11.10
2023-02-28T04:57:02.576Z,10.70
2023-02-28T04:59:30.445Z,10.90
2023-02-28T05:01:58.409Z,11.60
2023-02-28T05:04:26.625Z,10.90
2023-02-28T05:06:54.593Z,10.40
2023-02-28T05:09:22.634Z,10.50
2023-02-28T05:11:50.502Z,10.80
2023-02-28T05:14:18.448Z,10.30
2023-02-28T05:16:46.412Z,10.50
2023-02-28T05:19:14.497Z,11.10
2023-02-28T05:21:51.558Z,11.30
2023-02-28T05:24:25.895Z,11.70
2023-02-28T05:26:55.686Z,11.90
2023-02-28T05:29:23.913Z,12.50
2023-02-28T05:31:52.036Z,12.00
2023-02-28T05:34:20.049Z,12.70
2023-02-28T05:36:47.986Z,15.40
2023-02-28T05:39:16.007Z,13.50
2023-02-28T05:41:44.668Z,11.70
2023-02-28T05:44:13.518Z,11.80
2023-02-28T05:46:41.702Z,11.40
2023-02-28T05:49:09.947Z,11.70
2023-02-28T05:51:40.758Z,13.20
2023-02-28T05:54:09.296Z,13.30
2023-02-28T05:56:40.069Z,13.20
2023-02-28T05:59:08.101Z,20.10
2023-02-28T06:01:41.777Z,20.40
2023-02-28T06:04:22.301Z,18.60
2023-02-28T06:06:58.700Z,19.30
2023-02-28T06:09:26.777Z,16.80
2023-02-28T06:11:55.190Z,15.10
2023-02-28T06:14:23.030Z,17.80
2023-02-28T06:16:51.411Z,15.50
2023-02-28T06:19:19.454Z,14.70
2023-02-28T06:21:50.280Z,15.00
2023-02-28T06:24:18.208Z,18.70
2023-02-28T06:26:46.323Z,17.50
2023-02-28T06:29:18.054Z,14.90
2023-02-28T06:31:47.283Z,15.00
2023-02-28T06:34:15.913Z,13.80
2023-02-28T06:36:44.647Z,16.40
2023-02-28T06:39:12.602Z,13.30
2023-02-28T06:41:54.009Z,14.90
2023-02-28T06:44:24.372Z,13.30
2023-02-28T06:46:52.590Z,13.00
2023-02-28T06:49:20.571Z,14.40
2023-02-28T06:51:48.473Z,13.20
2023-02-28T06:54:16.449Z,15.70
2023-02-28T06:56:44.681Z,13.90
2023-02-28T06:59:12.597Z,13.90
2023-02-28T07:01:41.137Z,12.50
2023-02-28T07:04:09.259Z,12.60
2023-02-28T07:06:37.126Z,15.70
2023-02-28T07:09:05.201Z,14.50
2023-02-28T07:11:33.453Z,14.60
2023-02-28T07:14:01.376Z,22.60
2023-02-28T07:16:29.284Z,17.40
2023-02-28T07:18:57.228Z,16.90
2023-02-28T07:21:25.830Z,16.20
2023-02-28T07:23:53.774Z,15.30
2023-02-28T07:26:22.337Z,19.70
2023-02-28T07:28:50.598Z,20.50
2023-02-28T07:31:19.568Z,22.70
2023-02-28T07:33:47.719Z,15.00
2023-02-28T07:36:19.473Z,16.60
2023-02-28T07:38:51.683Z,15.60
2023-02-28T07:41:22.255Z,18.20
2023-02-28T07:43:50.520Z,16.70
2023-02-28T07:46:19.452Z,17.00
2023-02-28T07:48:47.419Z,19.70
2023-02-28T07:51:15.653Z,19.00
2023-02-28T07:53:43.593Z,22.00
2023-02-28T07:56:11.835Z,16.60
2023-02-28T07:58:39.782Z,16.90
2023-02-28T08:01:09.795Z,25.20
2023-02-28T08:03:39.627Z,17.60
2023-02-28T08:06:15.714Z,17.70
2023-02-28T08:08:43.587Z,13.20
2023-02-28T08:11:11.464Z,14.60
2023-02-28T08:13:39.517Z,13.90
2023-02-28T08:16:07.586Z,14.60
2023-02-28T08:18:35.750Z,11.20
2023-02-28T08:21:11.106Z,12.70
2023-02-28T08:23:39.644Z,14.40
2023-02-28T08:26:07.528Z,17.40
2023-02-28T08:28:35.500Z,12.30
2023-02-28T08:31:08.522Z,11.70
2023-02-28T08:33:37.204Z,10.40
2023-02-28T08:36:05.895Z,11.50
2023-02-28T08:38:33.744Z,9.30
2023-02-28T08:41:04.554Z,9.90
2023-02-28T08:43:32.527Z,13.30
2023-02-28T08:46:00.585Z,10.20
2023-02-28T08:48:30.217Z,10.70
2023-02-28T08:51:08.586Z,10.40
2023-02-28T08:53:38.262Z,11.00
2023-02-28T08:56:08.831Z,10.00
2023-02-28T08:58:36.928Z,9.00
2023-02-28T09:01:13.514Z,9.70
2023-02-28T09:03:42.854Z,14.80
2023-02-28T09:06:12.391Z,9.90
2023-02-28T09:08:41.183Z,9.10
2023-02-28T09:11:09.880Z,8.80
2023-02-28T09:13:38.997Z,10.20
2023-02-28T09:16:08.967Z,8.80
2023-02-28T09:18:38.526Z,8.60
2023-02-28T09:21:08.261Z,8.80
2023-02-28T09:23:38.956Z,9.90
2023-02-28T09:26:07.365Z,9.60
2023-02-28T09:28:35.304Z,9.40
2023-02-28T09:31:05.643Z,10.20
2023-02-28T09:33:35.295Z,8.50
2023-02-28T09:36:04.803Z,8.80
2023-02-28T09:38:32.805Z,10.80
2023-02-28T09:41:04.711Z,10.10
2023-02-28T09:43:41.201Z,10.20
2023-02-28T09:46:27.629Z,8.80
2023-02-28T09:48:57.002Z,8.90
2023-02-28T09:51:43.496Z,10.60
2023-02-28T09:54:20.680Z,11.80
2023-02-28T09:56:55.207Z,10.10
2023-02-28T09:59:47.316Z,11.10
2023-02-28T10:02:53.775Z,9.70
2023-02-28T10:05:28.051Z,7.70
2023-02-28T10:08:17.346Z,7.90
2023-02-28T10:10:49.973Z,7.50
2023-02-28T10:13:35.593Z,14.00
2023-02-28T10:16:11.131Z,7.00
2023-02-28T10:18:49.912Z,6.60
2023-02-28T10:21:36.420Z,7.20
2023-02-28T10:24:29.490Z,6.20
2023-02-28T10:27:02.103Z,7.10
2023-02-28T10:29:33.783Z,6.70
2023-02-28T10:32:04.486Z,6.90
2023-02-28T10:34:32.443Z,7.40
2023-02-28T10:37:10.501Z,7.80
2023-02-28T10:39:45.046Z,7.30
2023-02-28T10:42:42.189Z,7.70
2023-02-28T10:45:18.493Z,9.10
2023-02-28T10:48:03.765Z,8.10
2023-02-28T10:50:40.171Z,9.70
2023-02-28T10:53:36.055Z,7.60
2023-02-28T10:56:09.603Z,9.00
2023-02-28T10:59:01.581Z,9.20
2023-02-28T11:01:40.752Z,7.50
2023-02-28T11:04:19.191Z,8.50
2023-02-28T11:06:47.506Z,7.60
2023-02-28T11:09:30.070Z,8.00
2023-02-28T11:11:58.365Z,8.00
2023-02-28T11:14:35.211Z,9.10
2023-02-28T11:17:21.622Z,8.10
2023-02-28T11:19:54.228Z,9.50
2023-02-28T11:22:29.850Z,8.10
2023-02-28T11:25:02.568Z,7.70
2023-02-28T11:27:34.801Z,8.00
2023-02-28T11:30:02.944Z,8.40
2023-02-28T11:32:32.239Z,8.00
2023-02-28T11:35:12.147Z,9.40
2023-02-28T11:37:41.907Z,9.30
2023-02-28T11:40:18.220Z,9.00
2023-02-28T11:43:07.567Z,10.20
2023-02-28T11:45:57.643Z,10.50
2023-02-28T11:48:36.439Z,13.20
2023-02-28T11:51:22.878Z,12.90
2023-02-28T11:53:50.753Z,13.70
2023-02-28T11:56:31.163Z,10.80
2023-02-28T11:59:37.535Z,10.70
2023-02-28T12:02:17.557Z,9.20
2023-02-28T12:05:13.022Z,9.60
2023-02-28T12:08:09.539Z,9.80
2023-02-28T12:10:58.395Z,12.50
2023-02-28T12:13:54.375Z,9.70
2023-02-28T12:16:28.908Z,11.20
2023-02-28T12:19:12.382Z,10.90
2023-02-28T12:22:01.324Z,10.60
2023-02-28T12:24:44.187Z,10.70
2023-02-28T12:27:20.238Z,11.20
2023-02-28T12:30:15.971Z,11.80
2023-02-28T12:32:49.058Z,11.50
2023-02-28T12:35:23.045Z,10.60
2023-02-28T12:38:20.504Z,12.20
2023-02-28T12:40:55.880Z,11.10
2023-02-28T12:43:31.994Z,11.50
2023-02-28T12:46:08.664Z,10.80
2023-02-28T12:48:49.485Z,11.20
2023-02-28T12:51:18.585Z,10.90
2023-02-28T12:54:11.158Z,11.60
2023-02-28T12:56:55.330Z,10.90
2023-02-28T12:59:46.605Z,11.90
2023-02-28T13:02:29.742Z,12.00
2023-02-28T13:05:06.668Z,10.40
2023-02-28T13:07:59.462Z,11.50
2023-02-28T13:10:41.195Z,12.00
2023-02-28T13:13:16.246Z,11.80
2023-02-28T13:15:58.431Z,11.80
2023-02-28T13:19:08.895Z,11.20
2023-02-28T13:21:45.544Z,11.70
2023-02-28T13:24:33.388Z,12.90
2023-02-28T13:27:01.174Z,11.70
2023-02-28T13:29:35.185Z,10.80
2023-02-28T13:32:09.514Z,11.40
2023-02-28T13:34:40.796Z,11.70
2023-02-28T13:37:21.031Z,10.70
2023-02-28T13:39:50.116Z,13.00
2023-02-28T13:42:35.327Z,10.90
2023-02-28T13:45:03.779Z,11.50
2023-02-28T13:47:47.987Z,11.50
2023-02-28T13:50:38.514Z,11.30
2023-02-28T13:53:31.290Z,12.90
2023-02-28T13:55:59.236Z,12.40
2023-02-28T13:58:44.249Z,12.80
2023-02-28T14:01:12.099Z,11.90
2023-02-28T14:04:07.479Z,11.40
2023-02-28T14:06:37.979Z,10.30
2023-02-28T14:09:29.923Z,10.70
2023-02-28T14:11:58.744Z,11.30
2023-02-28T14:14:47.025Z,12.40
2023-02-28T14:17:17.662Z,11.30
2023-02-28T14:19:51.028Z,11.20
2023-02-28T14:25:32.092Z,10.70
2023-02-28T14:28:31.074Z,10.90
2023-02-28T14:31:08.707Z,10.90
2023-02-28T14:33:44.543Z,12.30
2023-02-28T14:36:27.962Z,12.30
2023-02-28T14:38:58.949Z,12.80
2023-02-28T14:41:38.011Z,13.20
2023-02-28T14:44:32.951Z,12.60
2023-02-28T14:47:07.730Z,13.20
2023-02-28T14:49:39.584Z,13.80
2023-02-28T14:52:10.827Z,11.50
2023-02-28T14:54:40.343Z,9.80
2023-02-28T14:57:22.767Z,9.20
2023-02-28T15:00:04.766Z,8.30
2023-02-28T15:02:36.258Z,8.00
2023-02-28T15:05:13.361Z,8.80
2023-02-28T15:07:41.434Z,9.50
2023-02-28T15:10:25.566Z,9.80
2023-02-28T15:12:59.303Z,9.50
2023-02-28T15:18:20.938Z,8.30
2023-02-28T15:20:49.887Z,8.80
2023-02-28T15:23:20.441Z,10.30
2023-02-28T15:25:49.336Z,9.90
2023-02-28T15:28:21.078Z,8.90
2023-02-28T15:31:01.121Z,8.50
2023-02-28T15:33:34.684Z,9.00
2023-02-28T15:38:43.618Z,10.30
2023-02-28T15:41:36.254Z,9.20
2023-02-28T15:44:27.987Z,9.90
2023-02-28T15:47:20.375Z,9.50
2023-02-28T15:50:05.261Z,9.10
2023-02-28T15:52:42.528Z,10.70
2023-02-28T15:55:22.888Z,9.30
2023-02-28T15:57:54.197Z,10.20
2023-02-28T16:00:25.088Z,9.80
2023-02-28T16:02:53.406Z,9.50
2023-02-28T16:05:31.475Z,9.00
2023-02-28T16:08:12.402Z,9.60
2023-02-28T16:10:40.874Z,10.10
2023-02-28T16:13:14.978Z,10.30
2023-02-28T16:15:44.778Z,23.80
2023-02-28T16:18:14.127Z,15.00
2023-02-28T16:20:42.483Z,11.20
2023-02-28T16:23:10.356Z,10.40
2023-02-28T16:25:41.793Z,14.50
2023-02-28T16:28:20.576Z,16.10
2023-02-28T16:30:48.563Z,18.70
2023-02-28T16:33:16.405Z,16.20
2023-02-28T16:35:44.329Z,23.30
2023-02-28T16:38:12.594Z,19.50
2023-02-28T16:40:40.986Z,19.90
2023-02-28T16:43:18.019Z,21.20
2023-02-28T16:45:46.423Z,17.20
2023-02-28T16:48:17.771Z,24.70
2023-02-28T16:50:45.800Z,20.00
2023-02-28T16:53:14.534Z,39.10
2023-02-28T16:55:42.689Z,37.40
2023-02-28T16:58:16.345Z,24.80
2023-02-28T17:00:44.789Z,35.40
2023-02-28T17:03:33.256Z,49.20
2023-02-28T17:06:01.986Z,75.00
2023-02-28T17:08:32.923Z,25.90
2023-02-28T17:11:01.806Z,29.70
2023-02-28T17:13:29.844Z,24.80
2023-02-28T17:15:57.817Z,22.50
2023-02-28T17:18:27.600Z,25.40
2023-02-28T17:20:55.510Z,27.10
2023-02-28T17:23:23.353Z,24.30
2023-02-28T17:25:57.550Z,22.50
2023-02-28T17:28:26.033Z,23.00
2023-02-28T17:30:54.061Z,26.30
2023-02-28T17:33:22.169Z,28.20
2023-02-28T17:35:50.119Z,28.50
2023-02-28T17:38:20.718Z,29.40
2023-02-28T17:40:48.762Z,31.90
2023-02-28T17:43:16.815Z,35.50
2023-02-28T17:45:44.695Z,37.00
2023-02-28T17:48:13.454Z,38.40
2023-02-28T17:50:41.876Z,38.50
2023-02-28T17:53:10.073Z,44.70
2023-02-28T17:55:38.176Z,54.20
2023-02-28T17:58:06.236Z,59.50
2023-02-28T18:00:34.596Z,55.90
2023-02-28T18:03:02.929Z,66.60
2023-02-28T18:05:32.351Z,64.10
2023-02-28T18:08:01.434Z,70.00
2023-02-28T18:10:34.101Z,67.70
2023-02-28T18:13:02.097Z,53.60
2023-02-28T18:15:30.548Z,58.00
2023-02-28T18:17:58.561Z,57.50
2023-02-28T18:20:27.068Z,49.80
2023-02-28T18:22:55.213Z,47.30
2023-02-28T18:25:23.427Z,47.80
2023-02-28T18:27:58.065Z,41.00
2023-02-28T18:30:31.580Z,43.10
2023-02-28T18:33:01.317Z,30.60
2023-02-28T18:35:37.541Z,27.10
2023-02-28T18:38:16.606Z,24.60
2023-02-28T18:41:02.464Z,26.00
2023-02-28T18:43:32.138Z,26.70
2023-02-28T18:46:10.708Z,24.10
2023-02-28T18:48:39.294Z,23.90
2023-02-28T18:51:16.300Z,24.20
2023-02-28T18:53:44.954Z,27.00
2023-02-28T18:56:14.888Z,28.30
2023-02-28T18:58:43.456Z,33.80
2023-02-28T19:01:21.088Z,36.60
2023-02-28T19:03:50.778Z,36.80
2023-02-28T19:06:19.669Z,25.30
2023-02-28T19:08:49.280Z,27.40
2023-02-28T19:11:18.852Z,27.40
2023-02-28T19:13:47.514Z,24.40
2023-02-28T19:16:19.574Z,24.80
2023-02-28T19:18:49.257Z,23.60
2023-02-28T19:21:19.437Z,23.40
2023-02-28T19:23:48.500Z,23.10
2023-02-28T19:26:22.286Z,26.60
2023-02-28T19:28:50.561Z,26.10
2023-02-28T19:31:24.255Z,22.40
2023-02-28T19:33:53.137Z,24.40
2023-02-28T19:36:22.602Z,22.30
2023-02-28T19:38:50.826Z,21.50
2023-02-28T19:41:19.663Z,21.90
2023-02-28T19:43:47.910Z,23.10
2023-02-28T19:46:16.214Z,24.30
2023-02-28T19:48:44.897Z,24.30
2023-02-28T19:51:14.051Z,24.10
2023-02-28T19:53:42.883Z,22.30
2023-02-28T19:56:11.631Z,23.40
2023-02-28T19:58:40.048Z,22.00
2023-02-28T20:01:14.291Z,22.20
2023-02-28T20:03:42.708Z,23.00
2023-02-28T20:06:15.217Z,21.80
2023-02-28T20:08:43.419Z,21.50
2023-02-28T20:11:15.453Z,22.40
2023-02-28T20:13:44.682Z,21.90
2023-02-28T20:16:14.488Z,20.80
2023-02-28T20:18:44.308Z,21.60
2023-02-28T20:21:13.533Z,22.00
2023-02-28T20:23:41.770Z,21.90
2023-02-28T20:26:10.413Z,22.40
2023-02-28T20:28:39.801Z,22.90
2023-02-28T20:31:16.834Z,23.50
2023-02-28T20:33:46.844Z,25.10
2023-02-28T20:36:15.918Z,23.90
2023-02-28T20:38:43.966Z,26.10
2023-02-28T20:41:13.033Z,26.10
2023-02-28T20:43:41.481Z,25.40
2023-02-28T20:46:10.282Z,27.20
2023-02-28T20:48:40.582Z,34.30
2023-02-28T20:51:08.675Z,44.20
2023-02-28T20:53:36.818Z,28.30
2023-02-28T20:56:08.961Z,26.60
2023-02-28T20:58:37.790Z,25.40
2023-02-28T21:01:18.417Z,25.00
2023-02-28T21:03:52.179Z,26.10
2023-02-28T21:08:50.174Z,26.20
2023-02-28T21:11:25.449Z,27.10
2023-02-28T21:13:54.411Z,28.80
2023-02-28T21:16:24.171Z,32.00
2023-02-28T21:18:55.151Z,33.70
2023-02-28T21:21:24.778Z,41.70
2023-02-28T21:23:52.757Z,49.70
2023-02-28T21:26:22.988Z,43.60
2023-02-28T21:28:52.036Z,42.00
2023-02-28T21:31:21.808Z,44.00
2023-02-28T21:33:50.224Z,47.60
2023-02-28T21:36:21.091Z,46.00
2023-02-28T21:38:54.296Z,45.40
2023-02-28T21:41:24.164Z,47.90
2023-02-28T21:43:53.176Z,58.50
2023-02-28T21:46:23.834Z,57.90
2023-02-28T21:48:52.201Z,75.60
2023-02-28T21:51:22.725Z,89.50
2023-02-28T21:53:50.983Z,98.90
2023-02-28T21:56:24.789Z,79.20
2023-02-28T21:59:00.456Z,71.10
2023-02-28T22:01:37.205Z,68.70
2023-02-28T22:04:08.867Z,57.40
2023-02-28T22:06:40.979Z,58.00
2023-02-28T22:09:10.047Z,57.10
2023-02-28T22:11:39.030Z,61.00
2023-02-28T22:14:09.029Z,60.30
2023-02-28T22:16:50.837Z,65.30
2023-02-28T22:19:20.974Z,60.40
2023-02-28T22:21:48.926Z,54.00
2023-02-28T22:24:20.143Z,54.10
2023-02-28T22:26:49.417Z,53.30
2023-02-28T22:29:17.439Z,47.40
2023-02-28T22:31:45.484Z,46.50
2023-02-28T22:34:13.742Z,48.20
2023-02-28T22:36:42.777Z,51.00
2023-02-28T22:39:11.313Z,62.40
2023-02-28T22:41:39.638Z,62.00
2023-02-28T22:44:07.805Z,61.10
2023-02-28T22:46:36.324Z,70.90
2023-02-28T22:49:06.083Z,70.60
2023-02-28T22:51:34.946Z,54.60
2023-02-28T22:54:03.898Z,51.20
2023-02-28T22:56:32.430Z,56.00
2023-02-28T22:59:02.028Z,52.50
2023-02-28T23:01:33.468Z,57.90
2023-02-28T23:04:01.822Z,60.90
2023-02-28T23:06:37.741Z,61.40
2023-02-28T23:09:07.716Z,55.90
2023-02-28T23:11:40.860Z,56.80
2023-02-28T23:14:12.752Z,59.80
2023-02-28T23:16:43.985Z,60.90
2023-02-28T23:19:16.374Z,57.40
2023-02-28T23:21:45.780Z,47.10
2023-02-28T23:24:15.521Z,46.90
2023-02-28T23:26:46.424Z,49.50
2023-02-28T23:29:17.549Z,49.10
2023-02-28T23:31:45.500Z,48.30
2023-02-28T23:34:15.667Z,42.00
2023-02-28T23:36:45.975Z,44.30
2023-02-28T23:39:16.803Z,43.90
2023-02-28T23:41:45.096Z,50.00
2023-02-28T23:44:16.907Z,49.00
2023-02-28T23:46:47.399Z,48.80
2023-02-28T23:49:16.315Z,45.00
2023-02-28T23:51:44.182Z,51.30
2023-02-28T23:54:12.160Z,51.30
